sensor_id;sensor_type;location;lat;lon;timestamp;P1;durP1;ratioP1;P2;durP2;ratioP2
23490;SDS011;14683;50.038;8.078;2023-03-01T07:02:39;30.20;;;14.13;;
23490;SDS011;14683;50.038;8.078;2023-03-01T07:05:05;20.65;;;12.77;;
23490;SDS011;14683;50.038;8.078;2023-03-01T07:07:31;26.77;;;14.98;;
23490;SDS011;14683;50.038;8.078;2023-03-01T07:09:58;20.60;;;13.88;;
23490;SDS011;14683;50.038;8.078;2023-03-01T07:12:24;21.67;;;12.95;;
23490;SDS011;14683;50.038;8.078;2023-03-01T07:17:17;18.63;;;11.48;;
23490;SDS011;14683;50.038;8.078;2023-03-01T07:19:44;17.52;;;12.43;;
23490;SDS011;14683;50.038;8.078;2023-03-01T07:22:10;18.50;;;11.88;;
23490;SDS011;14683;50.038;8.078;2023-03-01T07:24:36;19.25;;;12.43;;
23490;SDS011;14683;50.038;8.078;2023-03-01T07:27:02;20.95;;;12.75;;
23490;SDS011;14683;50.038;8.078;2023-03-01T07:29:28;19.30;;;11.38;;
23490;SDS011;14683;50.038;8.078;2023-03-01T07:31:54;20.00;;;12.32;;
23490;SDS011;14683;50.038;8.078;2023-03-01T07:34:20;18.85;;;12.13;;
23490;SDS011;14683;50.038;8.078;2023-03-01T07:36:46;21.55;;;12.32;;
23490;SDS011;14683;50.038;8.078;2023-03-01T07:39:13;19.08;;;12.80;;
23490;SDS011;14683;50.038;8.078;2023-03-01T07:41:39;20.05;;;11.85;;
23490;SDS011;14683;50.038;8.078;2023-03-01T07:44:05;16.85;;;11.38;;
23490;SDS011;14683;50.038;8.078;2023-03-01T07:46:31;14.55;;;10.27;;
23490;SDS011;14683;50.038;8.078;2023-03-01T07:48:57;18.77;;;10.85;;
23490;SDS011;14683;50.038;8.078;2023-03-01T07:51:23;16.27;;;10.65;;
23490;SDS011;14683;50.038;8.078;2023-03-01T07:53:49;14.55;;;10.25;;
23490;SDS011;14683;50.038;8.078;2023-03-01T07:56:16;17.98;;;11.05;;
23490;SDS011;14683;50.038;8.078;2023-03-01T07:58:44;18.00;;;11.57;;
23490;SDS011;14683;50.038;8.078;2023-03-01T08:01:12;16.33;;;10.23;;
23490;SDS011;14683;50.038;8.078;2023-03-01T08:03:39;16.42;;;10.40;;
23490;SDS011;14683;50.038;8.078;2023-03-01T08:06:06;15.52;;;10.40;;
23490;SDS011;14683;50.038;8.078;2023-03-01T08:08:34;18.27;;;12.00;;
23490;SDS011;14683;50.038;8.078;2023-03-01T08:11:00;18.02;;;10.98;;
23490;SDS011;14683;50.038;8.078;2023-03-01T08:13:28;14.80;;;10.13;;
23490;SDS011;14683;50.038;8.078;2023-03-01T08:15:59;16.55;;;11.18;;
23490;SDS011;14683;50.038;8.078;2023-03-01T08:18:26;15.18;;;11.05;;
23490;SDS011;14683;50.038;8.078;2023-03-01T08:20:52;16.67;;;10.98;;
23490;SDS011;14683;50.038;8.078;2023-03-01T08:25:44;16.85;;;10.80;;
23490;SDS011;14683;50.038;8.078;2023-03-01T08:30:36;19.35;;;11.13;;
23490;SDS011;14683;50.038;8.078;2023-03-01T08:33:02;20.63;;;11.23;;
23490;SDS011;14683;50.038;8.078;2023-03-01T08:35:28;15.35;;;10.45;;
23490;SDS011;14683;50.038;8.078;2023-03-01T08:37:54;16.65;;;10.68;;
23490;SDS011;14683;50.038;8.078;2023-03-01T08:42:46;16.90;;;11.02;;
23490;SDS011;14683;50.038;8.078;2023-03-01T08:47:39;17.63;;;11.18;;
23490;SDS011;14683;50.038;8.078;2023-03-01T08:50:05;17.05;;;11.30;;
23490;SDS011;14683;50.038;8.078;2023-03-01T08:52:32;18.27;;;11.90;;
23490;SDS011;14683;50.038;8.078;2023-03-01T08:54:58;16.90;;;11.15;;
23490;SDS011;14683;50.038;8.078;2023-03-01T08:57:27;15.85;;;10.98;;
23490;SDS011;14683;50.038;8.078;2023-03-01T08:59:53;16.88;;;11.30;;
23490;SDS011;14683;50.038;8.078;2023-03-01T09:02:21;25.70;;;12.55;;
23490;SDS011;14683;50.038;8.078;2023-03-01T09:04:48;16.27;;;10.95;;
23490;SDS011;14683;50.038;8.078;2023-03-01T09:09:39;17.55;;;10.85;;
23490;SDS011;14683;50.038;8.078;2023-03-01T09:12:06;17.00;;;10.98;;
23490;SDS011;14683;50.038;8.078;2023-03-01T09:14:32;17.77;;;11.68;;
23490;SDS011;14683;50.038;8.078;2023-03-01T09:19:24;20.45;;;11.05;;
23490;SDS011;14683;50.038;8.078;2023-03-01T09:24:22;16.25;;;10.52;;
23490;SDS011;14683;50.038;8.078;2023-03-01T09:26:49;21.83;;;11.88;;
23490;SDS011;14683;50.038;8.078;2023-03-01T09:29:16;21.40;;;12.13;;
23490;SDS011;14683;50.038;8.078;2023-03-01T09:31:43;18.58;;;11.73;;
23490;SDS011;14683;50.038;8.078;2023-03-01T09:36:35;18.58;;;11.75;;
23490;SDS011;14683;50.038;8.078;2023-03-01T09:39:01;18.98;;;11.70;;
23490;SDS011;14683;50.038;8.078;2023-03-01T09:44:15;19.85;;;12.25;;
23490;SDS011;14683;50.038;8.078;2023-03-01T09:46:57;19.58;;;11.95;;
23490;SDS011;14683;50.038;8.078;2023-03-01T09:49:27;19.55;;;11.93;;
23490;SDS011;14683;50.038;8.078;2023-03-01T09:54:40;17.73;;;12.10;;
23490;SDS011;14683;50.038;8.078;2023-03-01T09:59:56;23.08;;;12.57;;
23490;SDS011;14683;50.038;8.078;2023-03-01T10:02:39;21.52;;;12.80;;
23490;SDS011;14683;50.038;8.078;2023-03-01T10:10:32;16.02;;;10.95;;
23490;SDS011;14683;50.038;8.078;2023-03-01T10:13:02;18.25;;;12.20;;
23490;SDS011;14683;50.038;8.078;2023-03-01T10:15:44;20.38;;;12.15;;
23490;SDS011;14683;50.038;8.078;2023-03-01T10:18:16;22.08;;;13.07;;
23490;SDS011;14683;50.038;8.078;2023-03-01T10:23:27;20.73;;;12.27;;
23490;SDS011;14683;50.038;8.078;2023-03-01T10:31:43;17.55;;;12.23;;
23490;SDS011;14683;50.038;8.078;2023-03-01T10:34:13;20.90;;;12.52;;
23490;SDS011;14683;50.038;8.078;2023-03-01T10:36:44;17.88;;;12.05;;
23490;SDS011;14683;50.038;8.078;2023-03-01T10:39:14;18.73;;;12.25;;
23490;SDS011;14683;50.038;8.078;2023-03-01T10:41:52;19.50;;;12.65;;
23490;SDS011;14683;50.038;8.078;2023-03-01T10:47:04;16.13;;;11.95;;
23490;SDS011;14683;50.038;8.078;2023-03-01T10:49:31;18.30;;;12.20;;
23490;SDS011;14683;50.038;8.078;2023-03-01T10:51:57;24.17;;;13.50;;
23490;SDS011;14683;50.038;8.078;2023-03-01T10:54:41;16.98;;;11.65;;
23490;SDS011;14683;50.038;8.078;2023-03-01T11:00:00;17.60;;;11.23;;
23490;SDS011;14683;50.038;8.078;2023-03-01T11:02:49;17.13;;;11.55;;
23490;SDS011;14683;50.038;8.078;2023-03-01T11:05:19;15.00;;;10.73;;
23490;SDS011;14683;50.038;8.078;2023-03-01T11:07:53;17.05;;;11.88;;
23490;SDS011;14683;50.038;8.078;2023-03-01T11:10:22;16.63;;;11.60;;
23490;SDS011;14683;50.038;8.078;2023-03-01T11:12:53;18.17;;;11.90;;
23490;SDS011;14683;50.038;8.078;2023-03-01T11:15:24;15.82;;;11.05;;
23490;SDS011;14683;50.038;8.078;2023-03-01T11:17:52;15.32;;;10.68;;
23490;SDS011;14683;50.038;8.078;2023-03-01T11:23:15;16.05;;;11.60;;
23490;SDS011;14683;50.038;8.078;2023-03-01T11:28:10;16.95;;;11.15;;
23490;SDS011;14683;50.038;8.078;2023-03-01T11:30:46;16.40;;;11.35;;
23490;SDS011;14683;50.038;8.078;2023-03-01T11:33:18;13.45;;;9.93;;
23490;SDS011;14683;50.038;8.078;2023-03-01T11:35:53;13.23;;;10.10;;
23490;SDS011;14683;50.038;8.078;2023-03-01T11:38:24;15.65;;;10.15;;
23490;SDS011;14683;50.038;8.078;2023-03-01T11:43:37;18.83;;;10.70;;
23490;SDS011;14683;50.038;8.078;2023-03-01T11:46:11;13.80;;;10.48;;
23490;SDS011;14683;50.038;8.078;2023-03-01T11:49:02;14.85;;;10.30;;
23490;SDS011;14683;50.038;8.078;2023-03-01T11:57:36;12.73;;;9.63;;
23490;SDS011;14683;50.038;8.078;2023-03-01T12:08:17;12.35;;;8.48;;
23490;SDS011;14683;50.038;8.078;2023-03-01T12:13:43;12.88;;;9.57;;
23490;SDS011;14683;50.038;8.078;2023-03-01T12:16:30;12.90;;;9.13;;
23490;SDS011;14683;50.038;8.078;2023-03-01T12:22:29;14.55;;;8.65;;
23490;SDS011;14683;50.038;8.078;2023-03-01T12:38:42;14.82;;;9.65;;
23490;SDS011;14683;50.038;8.078;2023-03-01T12:41:29;11.57;;;8.93;;
23490;SDS011;14683;50.038;8.078;2023-03-01T12:47:37;14.25;;;8.77;;
23490;SDS011;14683;50.038;8.078;2023-03-01T12:50:18;12.07;;;7.57;;
23490;SDS011;14683;50.038;8.078;2023-03-01T12:52:50;10.05;;;7.80;;
23490;SDS011;14683;50.038;8.078;2023-03-01T12:57:56;9.60;;;7.30;;
23490;SDS011;14683;50.038;8.078;2023-03-01T13:00:38;11.20;;;8.25;;
23490;SDS011;14683;50.038;8.078;2023-03-01T13:03:25;11.70;;;7.95;;
23490;SDS011;14683;50.038;8.078;2023-03-01T13:06:08;9.02;;;7.80;;
23490;SDS011;14683;50.038;8.078;2023-03-01T13:08:49;10.93;;;7.55;;
23490;SDS011;14683;50.038;8.078;2023-03-01T13:11:21;10.10;;;6.90;;
23490;SDS011;14683;50.038;8.078;2023-03-01T13:13:48;9.45;;;7.05;;
23490;SDS011;14683;50.038;8.078;2023-03-01T13:21:46;10.57;;;7.72;;
23490;SDS011;14683;50.038;8.078;2023-03-01T13:24:28;13.68;;;8.15;;
23490;SDS011;14683;50.038;8.078;2023-03-01T13:29:51;12.70;;;8.48;;
23490;SDS011;14683;50.038;8.078;2023-03-01T13:32:26;11.95;;;7.75;;
23490;SDS011;14683;50.038;8.078;2023-03-01T13:37:40;10.70;;;7.43;;
23490;SDS011;14683;50.038;8.078;2023-03-01T13:42:44;14.15;;;7.57;;
23490;SDS011;14683;50.038;8.078;2023-03-01T13:45:26;10.48;;;7.53;;
23490;SDS011;14683;50.038;8.078;2023-03-01T13:47:59;10.15;;;7.55;;
23490;SDS011;14683;50.038;8.078;2023-03-01T13:50:28;11.45;;;7.63;;
23490;SDS011;14683;50.038;8.078;2023-03-01T13:52:56;11.02;;;7.70;;
23490;SDS011;14683;50.038;8.078;2023-03-01T13:55:27;11.48;;;7.68;;
23490;SDS011;14683;50.038;8.078;2023-03-01T13:57:59;12.23;;;7.90;;
23490;SDS011;14683;50.038;8.078;2023-03-01T14:00:30;12.27;;;7.72;;
23490;SDS011;14683;50.038;8.078;2023-03-01T14:02:59;13.65;;;8.77;;
23490;SDS011;14683;50.038;8.078;2023-03-01T14:05:30;11.50;;;7.60;;
23490;SDS011;14683;50.038;8.078;2023-03-01T14:07:57;16.75;;;9.48;;
23490;SDS011;14683;50.038;8.078;2023-03-01T14:15:38;9.75;;;7.10;;
23490;SDS011;14683;50.038;8.078;2023-03-01T14:18:14;11.35;;;7.57;;
23490;SDS011;14683;50.038;8.078;2023-03-01T14:20:55;13.18;;;7.97;;
23490;SDS011;14683;50.038;8.078;2023-03-01T14:25:51;11.93;;;7.85;;
23490;SDS011;14683;50.038;8.078;2023-03-01T14:28:19;15.40;;;9.00;;
23490;SDS011;14683;50.038;8.078;2023-03-01T14:30:48;11.05;;;7.80;;
23490;SDS011;14683;50.038;8.078;2023-03-01T14:33:20;10.75;;;8.02;;
23490;SDS011;14683;50.038;8.078;2023-03-01T14:38:44;14.35;;;8.10;;
23490;SDS011;14683;50.038;8.078;2023-03-01T14:46:16;11.93;;;8.02;;
23490;SDS011;14683;50.038;8.078;2023-03-01T14:48:43;15.25;;;8.18;;
23490;SDS011;14683;50.038;8.078;2023-03-01T14:53:35;15.55;;;9.50;;
23490;SDS011;14683;50.038;8.078;2023-03-01T14:56:02;10.75;;;8.05;;
23490;SDS011;14683;50.038;8.078;2023-03-01T15:00:58;17.48;;;9.70;;
23490;SDS011;14683;50.038;8.078;2023-03-01T15:08:21;17.45;;;9.75;;
23490;SDS011;14683;50.038;8.078;2023-03-01T15:10:57;34.80;;;16.38;;
23490;SDS011;14683;50.038;8.078;2023-03-01T15:13:25;32.75;;;15.48;;
23490;SDS011;14683;50.038;8.078;2023-03-01T15:15:53;24.95;;;12.25;;
23490;SDS011;14683;50.038;8.078;2023-03-01T15:18:26;15.90;;;9.27;;
23490;SDS011;14683;50.038;8.078;2023-03-01T15:20:53;13.15;;;7.90;;
23490;SDS011;14683;50.038;8.078;2023-03-01T15:23:22;11.82;;;7.68;;
23490;SDS011;14683;50.038;8.078;2023-03-01T15:25:50;11.57;;;8.52;;
23490;SDS011;14683;50.038;8.078;2023-03-01T15:28:23;20.45;;;11.63;;
23490;SDS011;14683;50.038;8.078;2023-03-01T15:30:55;17.13;;;11.10;;
23490;SDS011;14683;50.038;8.078;2023-03-01T15:33:42;11.68;;;8.40;;
23490;SDS011;14683;50.038;8.078;2023-03-01T15:36:32;13.13;;;8.55;;
23490;SDS011;14683;50.038;8.078;2023-03-01T15:39:23;12.27;;;8.73;;
23490;SDS011;14683;50.038;8.078;2023-03-01T15:42:09;14.68;;;8.70;;
23490;SDS011;14683;50.038;8.078;2023-03-01T15:44:38;12.05;;;8.25;;
23490;SDS011;14683;50.038;8.078;2023-03-01T15:47:50;13.25;;;8.15;;
23490;SDS011;14683;50.038;8.078;2023-03-01T15:49:56;15.15;;;7.25;;
23490;SDS011;14683;50.038;8.078;2023-03-01T15:52:25;17.45;;;8.90;;
23490;SDS011;14683;50.038;8.078;2023-03-01T15:54:59;12.20;;;8.65;;
23490;SDS011;14683;50.038;8.078;2023-03-01T15:57:27;14.48;;;8.10;;
23490;SDS011;14683;50.038;8.078;2023-03-01T15:59:53;14.45;;;8.75;;
23490;SDS011;14683;50.038;8.078;2023-03-01T16:04:46;12.90;;;7.95;;
23490;SDS011;14683;50.038;8.078;2023-03-01T16:07:14;12.63;;;8.00;;
23490;SDS011;14683;50.038;8.078;2023-03-01T16:09:40;13.95;;;8.40;;
23490;SDS011;14683;50.038;8.078;2023-03-01T16:12:14;11.35;;;7.70;;
23490;SDS011;14683;50.038;8.078;2023-03-01T16:14:41;11.52;;;7.78;;
23490;SDS011;14683;50.038;8.078;2023-03-01T16:17:07;10.40;;;7.93;;
23490;SDS011;14683;50.038;8.078;2023-03-01T16:19:36;12.20;;;8.00;;
23490;SDS011;14683;50.038;8.078;2023-03-01T16:22:03;13.85;;;8.75;;
23490;SDS011;14683;50.038;8.078;2023-03-01T16:24:29;11.63;;;7.93;;
23490;SDS011;14683;50.038;8.078;2023-03-01T16:26:55;12.95;;;7.93;;
23490;SDS011;14683;50.038;8.078;2023-03-01T16:29:21;12.48;;;7.63;;
23490;SDS011;14683;50.038;8.078;2023-03-01T16:34:13;11.45;;;7.43;;
23490;SDS011;14683;50.038;8.078;2023-03-01T16:39:06;10.93;;;7.07;;
23490;SDS011;14683;50.038;8.078;2023-03-01T16:41:33;12.15;;;7.57;;
23490;SDS011;14683;50.038;8.078;2023-03-01T16:46:25;12.30;;;7.43;;
23490;SDS011;14683;50.038;8.078;2023-03-01T16:48:53;11.82;;;8.15;;
23490;SDS011;14683;50.038;8.078;2023-03-01T16:51:20;13.52;;;7.95;;
23490;SDS011;14683;50.038;8.078;2023-03-01T16:53:46;11.13;;;7.95;;
23490;SDS011;14683;50.038;8.078;2023-03-01T16:56:13;13.65;;;7.28;;
23490;SDS011;14683;50.038;8.078;2023-03-01T16:58:39;11.40;;;7.38;;
23490;SDS011;14683;50.038;8.078;2023-03-01T17:01:11;12.07;;;7.57;;
23490;SDS011;14683;50.038;8.078;2023-03-01T17:03:41;12.45;;;8.32;;
23490;SDS011;14683;50.038;8.078;2023-03-01T17:06:09;11.45;;;8.07;;
23490;SDS011;14683;50.038;8.078;2023-03-01T17:08:37;16.08;;;8.07;;
23490;SDS011;14683;50.038;8.078;2023-03-01T17:11:04;11.85;;;7.57;;
23490;SDS011;14683;50.038;8.078;2023-03-01T17:13:35;30.55;;;16.90;;
23490;SDS011;14683;50.038;8.078;2023-03-01T17:16:02;24.75;;;14.35;;
23490;SDS011;14683;50.038;8.078;2023-03-01T17:18:29;12.57;;;7.60;;
23490;SDS011;14683;50.038;8.078;2023-03-01T17:20:55;13.07;;;7.82;;
23490;SDS011;14683;50.038;8.078;2023-03-01T17:25:47;11.65;;;7.75;;
23490;SDS011;14683;50.038;8.078;2023-03-01T17:30:43;11.13;;;7.22;;
23490;SDS011;14683;50.038;8.078;2023-03-01T17:33:13;10.95;;;7.50;;
23490;SDS011;14683;50.038;8.078;2023-03-01T17:35:39;11.73;;;6.72;;
23490;SDS011;14683;50.038;8.078;2023-03-01T17:40:32;13.73;;;7.55;;
23490;SDS011;14683;50.038;8.078;2023-03-01T17:42:58;10.10;;;7.13;;
23490;SDS011;14683;50.038;8.078;2023-03-01T17:47:50;15.77;;;7.72;;
23490;SDS011;14683;50.038;8.078;2023-03-01T17:52:42;12.45;;;7.28;;
23490;SDS011;14683;50.038;8.078;2023-03-01T17:57:34;14.88;;;7.40;;
23490;SDS011;14683;50.038;8.078;2023-03-01T18:00:04;11.30;;;6.78;;
23490;SDS011;14683;50.038;8.078;2023-03-01T18:02:37;18.10;;;9.27;;
23490;SDS011;14683;50.038;8.078;2023-03-01T18:05:03;18.27;;;9.90;;
23490;SDS011;14683;50.038;8.078;2023-03-01T18:07:29;20.75;;;12.52;;
23490;SDS011;14683;50.038;8.078;2023-03-01T18:12:21;11.32;;;7.57;;
23490;SDS011;14683;50.038;8.078;2023-03-01T18:14:48;12.77;;;7.95;;
23490;SDS011;14683;50.038;8.078;2023-03-01T18:17:18;23.95;;;11.05;;
23490;SDS011;14683;50.038;8.078;2023-03-01T18:19:45;14.85;;;9.70;;
23490;SDS011;14683;50.038;8.078;2023-03-01T18:24:37;13.02;;;8.38;;
23490;SDS011;14683;50.038;8.078;2023-03-01T18:27:03;16.17;;;8.95;;
23490;SDS011;14683;50.038;8.078;2023-03-01T18:29:29;14.95;;;9.55;;
23490;SDS011;14683;50.038;8.078;2023-03-01T18:31:55;13.23;;;8.75;;
23490;SDS011;14683;50.038;8.078;2023-03-01T18:34:22;17.05;;;10.00;;
23490;SDS011;14683;50.038;8.078;2023-03-01T18:36:48;16.92;;;10.38;;
23490;SDS011;14683;50.038;8.078;2023-03-01T18:39:16;15.27;;;9.45;;
23490;SDS011;14683;50.038;8.078;2023-03-01T18:41:42;15.13;;;7.85;;
23490;SDS011;14683;50.038;8.078;2023-03-01T18:46:34;24.50;;;12.27;;
23490;SDS011;14683;50.038;8.078;2023-03-01T18:49:02;17.55;;;10.65;;
23490;SDS011;14683;50.038;8.078;2023-03-01T18:51:29;17.13;;;8.90;;
23490;SDS011;14683;50.038;8.078;2023-03-01T18:53:55;13.98;;;9.23;;
23490;SDS011;14683;50.038;8.078;2023-03-01T18:56:23;16.67;;;10.60;;
23490;SDS011;14683;50.038;8.078;2023-03-01T18:58:50;15.20;;;10.05;;
23490;SDS011;14683;50.038;8.078;2023-03-01T19:01:17;15.98;;;8.45;;
23490;SDS011;14683;50.038;8.078;2023-03-01T19:03:48;15.23;;;9.85;;
23490;SDS011;14683;50.038;8.078;2023-03-01T19:06:14;16.75;;;9.95;;
23490;SDS011;14683;50.038;8.078;2023-03-01T19:08:40;21.30;;;12.32;;
23490;SDS011;14683;50.038;8.078;2023-03-01T19:11:09;15.45;;;8.93;;
23490;SDS011;14683;50.038;8.078;2023-03-01T19:13:36;13.35;;;8.95;;
23490;SDS011;14683;50.038;8.078;2023-03-01T19:16:09;14.48;;;8.73;;
23490;SDS011;14683;50.038;8.078;2023-03-01T19:18:37;13.85;;;9.02;;
23490;SDS011;14683;50.038;8.078;2023-03-01T19:21:07;13.23;;;8.70;;
23490;SDS011;14683;50.038;8.078;2023-03-01T19:23:34;21.63;;;12.45;;
23490;SDS011;14683;50.038;8.078;2023-03-01T19:26:02;28.48;;;13.60;;
23490;SDS011;14683;50.038;8.078;2023-03-01T19:28:33;15.43;;;9.30;;
23490;SDS011;14683;50.038;8.078;2023-03-01T19:31:04;15.68;;;9.15;;
23490;SDS011;14683;50.038;8.078;2023-03-01T19:33:31;13.40;;;8.48;;
23490;SDS011;14683;50.038;8.078;2023-03-01T19:35:58;17.27;;;9.02;;
23490;SDS011;14683;50.038;8.078;2023-03-01T19:38:25;14.82;;;8.70;;
23490;SDS011;14683;50.038;8.078;2023-03-01T19:40:52;12.60;;;7.43;;
23490;SDS011;14683;50.038;8.078;2023-03-01T19:43:19;13.73;;;8.90;;
23490;SDS011;14683;50.038;8.078;2023-03-01T19:45:49;15.43;;;8.63;;
23490;SDS011;14683;50.038;8.078;2023-03-01T19:48:18;12.43;;;8.07;;
23490;SDS011;14683;50.038;8.078;2023-03-01T19:50:44;14.13;;;8.20;;
23490;SDS011;14683;50.038;8.078;2023-03-01T19:53:11;11.68;;;7.85;;
23490;SDS011;14683;50.038;8.078;2023-03-01T19:55:37;15.30;;;8.25;;
23490;SDS011;14683;50.038;8.078;2023-03-01T19:58:04;13.43;;;8.55;;
23490;SDS011;14683;50.038;8.078;2023-03-01T20:00:31;12.75;;;8.63;;
23490;SDS011;14683;50.038;8.078;2023-03-01T20:02:58;12.40;;;8.13;;
23490;SDS011;14683;50.038;8.078;2023-03-01T20:05:24;13.77;;;9.13;;
23490;SDS011;14683;50.038;8.078;2023-03-01T20:07:50;19.88;;;9.85;;
23490;SDS011;14683;50.038;8.078;2023-03-01T20:10:19;15.02;;;9.13;;
23490;SDS011;14683;50.038;8.078;2023-03-01T20:12:45;16.60;;;8.82;;
23490;SDS011;14683;50.038;8.078;2023-03-01T20:15:11;14.48;;;9.27;;
23490;SDS011;14683;50.038;8.078;2023-03-01T20:20:03;19.13;;;8.95;;
23490;SDS011;14683;50.038;8.078;2023-03-01T20:22:29;13.32;;;8.90;;
23490;SDS011;14683;50.038;8.078;2023-03-01T20:24:55;17.90;;;9.90;;
23490;SDS011;14683;50.038;8.078;2023-03-01T20:27:21;14.57;;;8.57;;
23490;SDS011;14683;50.038;8.078;2023-03-01T20:29:47;18.50;;;11.85;;
23490;SDS011;14683;50.038;8.078;2023-03-01T20:32:13;24.23;;;11.57;;
23490;SDS011;14683;50.038;8.078;2023-03-01T20:34:39;20.00;;;10.68;;
23490;SDS011;14683;50.038;8.078;2023-03-01T20:37:05;16.80;;;10.55;;
23490;SDS011;14683;50.038;8.078;2023-03-01T20:39:33;19.05;;;11.00;;
23490;SDS011;14683;50.038;8.078;2023-03-01T20:41:59;14.90;;;9.25;;
23490;SDS011;14683;50.038;8.078;2023-03-01T20:44:25;15.70;;;10.40;;
23490;SDS011;14683;50.038;8.078;2023-03-01T20:46:51;13.93;;;8.63;;
23490;SDS011;14683;50.038;8.078;2023-03-01T20:49:17;16.88;;;10.77;;
23490;SDS011;14683;50.038;8.078;2023-03-01T20:51:46;16.15;;;9.52;;
23490;SDS011;14683;50.038;8.078;2023-03-01T20:54:12;14.20;;;10.05;;
23490;SDS011;14683;50.038;8.078;2023-03-01T20:56:38;15.95;;;9.73;;
23490;SDS011;14683;50.038;8.078;2023-03-01T20:59:05;19.05;;;10.52;;
23490;SDS011;14683;50.038;8.078;2023-03-01T21:01:34;12.77;;;8.73;;
23490;SDS011;14683;50.038;8.078;2023-03-01T21:04:01;16.75;;;9.32;;
23490;SDS011;14683;50.038;8.078;2023-03-01T21:06:27;14.30;;;9.35;;
23490;SDS011;14683;50.038;8.078;2023-03-01T21:08:53;16.30;;;9.18;;
23490;SDS011;14683;50.038;8.078;2023-03-01T21:11:20;13.85;;;8.13;;
23490;SDS011;14683;50.038;8.078;2023-03-01T21:13:50;12.70;;;8.43;;
23490;SDS011;14683;50.038;8.078;2023-03-01T21:16:17;13.88;;;8.80;;
23490;SDS011;14683;50.038;8.078;2023-03-01T21:18:44;12.93;;;8.13;;
23490;SDS011;14683;50.038;8.078;2023-03-01T21:21:11;16.42;;;9.48;;
23490;SDS011;14683;50.038;8.078;2023-03-01T21:23:39;14.65;;;8.68;;
23490;SDS011;14683;50.038;8.078;2023-03-01T21:28:33;17.45;;;9.27;;
23490;SDS011;14683;50.038;8.078;2023-03-01T21:31:03;14.50;;;9.32;;
23490;SDS011;14683;50.038;8.078;2023-03-01T21:33:29;13.68;;;8.77;;
23490;SDS011;14683;50.038;8.078;2023-03-01T21:35:59;14.30;;;9.25;;
23490;SDS011;14683;50.038;8.078;2023-03-01T21:38:27;14.55;;;9.00;;
23490;SDS011;14683;50.038;8.078;2023-03-01T21:40:55;14.40;;;9.57;;
23490;SDS011;14683;50.038;8.078;2023-03-01T21:43:21;14.80;;;9.73;;
